Time;durP1;ratioP1;P1;durP2;ratioP2;P2;SDS_P1;SDS_P2;PMS_P1;PMS_P2;Temp;Humidity;BMP_temperature;BMP_pressure;BME280_temperature;BME280_humidity;BME280_pressure;Samples;Min_cycle;Max_cycle;Signal;HPM_P1;HPM_P2
2023/05/13 00:00:47;;;;;;;27.77;15.30;;;;;;;12.51;100.00;101856.69;4853728;29;20033;-74
2023/05/13 00:03:12;;;;;;;22.30;13.05;;;;;;;12.47;100.00;101855.13;4854277;29;20038;-75
2023/05/13 00:05:39;;;;;;;23.70;13.18;;;;;;;12.47;100.00;101849.75;4853323;29;20037;-74
2023/05/13 00:08:06;;;;;;;23.67;14.10;;;;;;;12.49;100.00;101841.56;4856704;29;20462;-76
2023/05/13 00:10:32;;;;;;;23.65;13.35;;;;;;;12.45;100.00;101845.44;4860701;29;20041;-76
2023/05/13 00:12:58;;;;;;;23.63;13.48;;;;;;;12.47;100.00;101848.91;4857592;29;20077;-76
2023/05/13 00:15:23;;;;;;;22.98;13.05;;;;;;;12.48;100.00;101842.53;4860627;29;20037;-76
2023/05/13 00:17:48;;;;;;;23.58;12.77;;;;;;;12.45;100.00;101846.31;4856651;29;20113;-76
2023/05/13 00:20:13;;;;;;;22.75;12.60;;;;;;;12.46;100.00;101841.75;4853893;29;20049;-76
2023/05/13 00:22:39;;;;;;;22.13;12.38;;;;;;;12.45;100.00;101835.50;4857976;29;20451;-76
2023/05/13 00:25:04;;;;;;;21.58;12.40;;;;;;;12.43;100.00;101845.56;4859067;29;20029;-76
2023/05/13 00:27:31;;;;;;;23.25;12.98;;;;;;;12.40;100.00;101851.09;4853314;29;20051;-76
2023/05/13 00:29:58;;;;;;;22.05;12.60;;;;;;;12.38;100.00;101842.28;4858862;29;20033;-76
2023/05/13 00:32:23;;;;;;;26.35;13.23;;;;;;;12.32;100.00;101843.53;4860090;29;20057;-76
2023/05/13 00:34:49;;;;;;;24.58;12.35;;;;;;;12.30;100.00;101852.69;4859369;29;20064;-75
2023/05/13 00:37:14;;;;;;;22.08;12.10;;;;;;;12.29;100.00;101840.19;4859797;29;20038;-76
2023/05/13 00:39:40;;;;;;;22.27;12.32;;;;;;;12.24;100.00;101845.88;4859807;29;20061;-76
2023/05/13 00:42:06;;;;;;;22.50;12.40;;;;;;;12.19;100.00;101843.44;4860041;29;20040;-76
2023/05/13 00:44:31;;;;;;;22.65;12.70;;;;;;;12.19;100.00;101840.75;4858978;29;20037;-76
2023/05/13 00:46:57;;;;;;;23.98;12.75;;;;;;;12.15;100.00;101847.34;4858891;29;20040;-76
2023/05/13 00:49:22;;;;;;;23.88;12.60;;;;;;;12.13;100.00;101843.84;4859342;29;20080;-76
2023/05/13 00:51:49;;;;;;;21.55;11.77;;;;;;;12.09;100.00;101850.41;4859004;29;20064;-76
2023/05/13 00:54:14;;;;;;;22.52;11.70;;;;;;;12.06;100.00;101853.28;4858215;29;20041;-76
2023/05/13 00:56:40;;;;;;;21.60;11.27;;;;;;;12.04;100.00;101853.38;4857038;29;20022;-76
2023/05/13 00:59:05;;;;;;;25.33;13.98;;;;;;;12.02;100.00;101851.75;4858740;29;20060;-76
2023/05/13 01:01:55;;;;;;;22.60;11.18;;;;;;;12.01;100.00;101855.41;4855243;29;20049;-76
2023/05/13 01:04:32;;;;;;;21.58;11.57;;;;;;;12.01;100.00;101855.41;4855622;29;20088;-76
2023/05/13 01:07:09;;;;;;;20.67;11.13;;;;;;;11.95;100.00;101858.47;4858283;29;20037;-76
2023/05/13 01:09:40;;;;;;;24.77;12.02;;;;;;;11.94;100.00;101854.94;4859562;29;20034;-76
2023/05/13 01:12:14;;;;;;;23.50;11.85;;;;;;;11.89;100.00;101857.88;4860040;29;20478;-76
2023/05/13 01:14:48;;;;;;;22.33;11.68;;;;;;;11.88;100.00;101848.06;4859591;29;20041;-76
2023/05/13 01:17:17;;;;;;;22.67;11.18;;;;;;;11.83;100.00;101855.59;4856143;29;20060;-76
2023/05/13 01:19:51;;;;;;;20.77;10.48;;;;;;;11.82;100.00;101853.84;4858328;29;20037;-77
2023/05/13 01:22:16;;;;;;;20.80;11.00;;;;;;;11.78;100.00;101851.44;4853140;29;20045;-77
2023/05/13 01:24:41;;;;;;;21.88;11.07;;;;;;;11.74;100.00;101855.28;4851082;29;20147;-76
2023/05/13 01:27:07;;;;;;;22.27;10.73;;;;;;;11.69;100.00;101858.25;4857353;29;20034;-76
2023/05/13 01:29:32;;;;;;;22.70;11.20;;;;;;;11.65;100.00;101840.56;4858986;29;20033;-76
2023/05/13 01:31:59;;;;;;;22.38;11.07;;;;;;;11.60;100.00;101851.63;4858737;29;20058;-76
2023/05/13 01:34:26;;;;;;;23.83;12.23;;;;;;;11.54;100.00;101847.47;4856828;29;20033;-76
2023/05/13 01:36:52;;;;;;;25.58;11.15;;;;;;;11.49;100.00;101848.72;4857427;29;20102;-76
2023/05/13 01:39:18;;;;;;;26.33;12.35;;;;;;;11.47;100.00;101848.81;4854726;29;22033;-76
2023/05/13 01:41:44;;;;;;;24.55;11.98;;;;;;;11.45;100.00;101845.34;4858742;29;20037;-77
2023/05/13 01:44:09;;;;;;;23.30;12.20;;;;;;;11.39;100.00;101853.81;4859032;29;20094;-76
2023/05/13 01:46:37;;;;;;;22.23;11.68;;;;;;;11.37;100.00;101853.03;4859107;29;20037;-76
2023/05/13 01:49:02;;;;;;;21.70;11.82;;;;;;;11.32;100.00;101853.31;4858093;29;20089;-76
2023/05/13 01:51:28;;;;;;;23.92;12.00;;;;;;;11.31;100.00;101853.41;4857511;29;20033;-76
2023/05/13 01:53:53;;;;;;;21.65;11.68;;;;;;;11.28;100.00;101850.91;4858840;29;20553;-76
2023/05/13 01:56:18;;;;;;;22.90;11.35;;;;;;;11.27;100.00;101855.41;4855435;29;20029;-76
2023/05/13 01:58:44;;;;;;;28.45;12.25;;;;;;;11.23;100.00;101856.56;4854050;29;20413;-76
2023/05/13 02:01:09;;;;;;;23.67;10.77;;;;;;;11.22;100.00;101853.97;4850707;29;20109;-76
2023/05/13 02:03:35;;;;;;;24.17;11.80;;;;;;;11.17;100.00;101852.41;4856673;29;20037;-77
2023/05/13 02:06:00;;;;;;;23.05;12.88;;;;;;;11.18;100.00;101850.56;4853985;29;20474;-77
2023/05/13 02:08:26;;;;;;;24.55;12.63;;;;;;;11.13;100.00;101856.25;4856882;29;20033;-76
2023/05/13 02:10:58;;;;;;;23.15;12.77;;;;;;;11.11;100.00;101860.84;4858653;29;20056;-77
2023/05/13 02:13:24;;;;;;;23.73;11.90;;;;;;;11.10;100.00;101858.22;4857351;29;20037;-77
2023/05/13 02:15:50;;;;;;;22.52;12.52;;;;;;;11.09;100.00;101862.75;4857396;29;20032;-76
2023/05/13 02:18:15;;;;;;;23.38;11.27;;;;;;;11.07;100.00;101856.59;4858540;29;20037;-77
2023/05/13 02:20:40;;;;;;;23.25;12.00;;;;;;;11.06;100.00;101859.38;4855272;29;20030;-76
2023/05/13 02:23:06;;;;;;;22.20;12.77;;;;;;;11.04;100.00;101859.47;4857741;29;20033;-76
2023/05/13 02:25:32;;;;;;;22.80;12.52;;;;;;;10.97;100.00;101858.09;4858255;29;20041;-76
2023/05/13 02:27:58;;;;;;;23.77;12.75;;;;;;;10.93;100.00;101859.25;4854269;29;20025;-77
2023/05/13 02:30:25;;;;;;;22.52;11.95;;;;;;;10.90;100.00;101860.28;4852860;29;20032;-77
2023/05/13 02:32:55;;;;;;;22.15;12.10;;;;;;;10.86;100.00;101856.03;4857496;29;20517;-77
2023/05/13 02:35:21;;;;;;;21.88;11.90;;;;;;;10.82;100.00;101855.34;4856976;29;20037;-76
2023/05/13 02:37:46;;;;;;;21.30;12.32;;;;;;;10.80;100.00;101859.09;4857620;29;20575;-76
2023/05/13 02:40:12;;;;;;;22.58;11.65;;;;;;;10.78;100.00;101853.78;4857580;29;20071;-76
2023/05/13 02:42:37;;;;;;;22.63;12.75;;;;;;;10.74;100.00;101857.63;4857249;29;20155;-76
2023/05/13 02:45:03;;;;;;;26.02;12.20;;;;;;;10.72;100.00;101848.78;4855679;29;20028;-77
2023/05/13 02:47:28;;;;;;;21.95;12.40;;;;;;;10.71;100.00;101854.25;4857720;29;20438;-76
2023/05/13 02:49:56;;;;;;;22.67;12.15;;;;;;;10.64;100.00;101857.28;4857495;29;20021;-77
2023/05/13 02:52:22;;;;;;;23.17;12.27;;;;;;;10.62;100.00;101850.28;4851213;29;20039;-76
2023/05/13 02:54:47;;;;;;;22.63;12.65;;;;;;;10.58;100.00;101848.72;4859580;29;20033;-76
2023/05/13 02:57:12;;;;;;;25.40;12.07;;;;;;;10.56;100.00;101847.94;4856911;29;20029;-76
2023/05/13 02:59:38;;;;;;;26.05;14.10;;;;;;;10.54;100.00;101847.16;4860974;29;20389;-76
2023/05/13 03:02:03;;;;;;;21.98;11.68;;;;;;;10.52;100.00;101841.00;4854273;29;20399;-76
2023/05/13 03:04:28;;;;;;;22.60;12.70;;;;;;;10.48;100.00;101841.19;4852575;29;20121;-76
2023/05/13 03:06:54;;;;;;;22.63;12.80;;;;;;;10.47;100.00;101842.13;4861793;29;20050;-76
2023/05/13 03:09:19;;;;;;;23.00;12.73;;;;;;;10.39;100.00;101836.31;4862886;29;20036;-76
2023/05/13 03:11:44;;;;;;;22.77;11.90;;;;;;;10.40;100.00;101837.19;4859376;29;20513;-76
2023/05/13 03:14:10;;;;;;;23.58;13.05;;;;;;;10.40;100.00;101842.56;4862184;29;20029;-75
2023/05/13 03:16:35;;;;;;;25.10;13.05;;;;;;;10.35;100.00;101848.19;4861116;29;20475;-76
2023/05/13 03:19:01;;;;;;;23.90;12.77;;;;;;;10.34;100.00;101845.56;4857340;29;20498;-76
2023/05/13 03:21:26;;;;;;;21.75;11.93;;;;;;;10.33;100.00;101847.38;4858597;29;20037;-75
2023/05/13 03:23:51;;;;;;;24.08;13.23;;;;;;;10.28;100.00;101846.78;4857959;29;20060;-75
2023/05/13 03:26:16;;;;;;;23.58;11.93;;;;;;;10.27;100.00;101850.41;4860245;29;20026;-75
2023/05/13 03:28:42;;;;;;;22.55;12.40;;;;;;;10.24;100.00;101861.34;4858426;29;20093;-75
2023/05/13 03:31:07;;;;;;;22.08;12.00;;;;;;;10.20;100.00;101854.38;4859210;29;20483;-76
2023/05/13 03:33:32;;;;;;;25.58;12.63;;;;;;;10.17;100.00;101855.41;4851676;29;20398;-75
2023/05/13 03:35:57;;;;;;;23.38;12.40;;;;;;;10.17;100.00;101854.56;4858135;29;20089;-76
2023/05/13 03:38:23;;;;;;;23.27;12.65;;;;;;;10.14;100.00;101852.91;4857991;29;20041;-75
2023/05/13 03:40:48;;;;;;;23.30;13.18;;;;;;;10.15;100.00;101858.19;4861523;29;20029;-76
2023/05/13 03:43:13;;;;;;;23.75;12.55;;;;;;;10.15;100.00;101860.03;4858198;29;20033;-75
2023/05/13 03:45:39;;;;;;;22.80;13.15;;;;;;;10.12;100.00;101853.00;4852025;29;20090;-75
2023/05/13 03:48:04;;;;;;;23.25;13.07;;;;;;;10.10;100.00;101854.03;4857753;29;20390;-76
2023/05/13 03:50:30;;;;;;;24.05;13.13;;;;;;;10.07;100.00;101864.94;4851348;29;20387;-75
2023/05/13 03:52:55;;;;;;;23.90;12.90;;;;;;;10.08;100.00;101866.69;4858002;29;20502;-75
2023/05/13 03:55:21;;;;;;;22.95;14.15;;;;;;;10.01;100.00;101868.81;4852935;29;20037;-76
2023/05/13 03:57:48;;;;;;;26.90;13.23;;;;;;;9.99;100.00;101867.19;4861525;29;20025;-75
2023/05/13 04:00:13;;;;;;;23.17;13.57;;;;;;;10.03;100.00;101869.63;4860412;29;20030;-76
2023/05/13 04:02:39;;;;;;;24.77;12.52;;;;;;;10.00;100.00;101864.44;4858754;29;20032;-75
2023/05/13 04:05:05;;;;;;;22.85;13.02;;;;;;;9.97;100.00;101865.47;4854446;29;20037;-75
2023/05/13 04:07:30;;;;;;;24.25;13.07;;;;;;;9.96;100.00;101878.97;4861437;29;20032;-75
2023/05/13 04:09:55;;;;;;;23.55;12.63;;;;;;;9.93;100.00;101879.13;4853415;29;20398;-75
2023/05/13 04:12:21;;;;;;;26.27;13.77;;;;;;;9.89;100.00;101873.06;4858853;29;20021;-76
2023/05/13 04:14:46;;;;;;;23.92;13.25;;;;;;;9.88;100.00;101873.13;4855318;29;20044;-75
2023/05/13 04:17:11;;;;;;;23.70;12.60;;;;;;;9.85;100.00;101865.25;4859691;29;20340;-76
2023/05/13 04:19:36;;;;;;;24.63;12.27;;;;;;;9.85;100.00;101876.00;4854258;29;20036;-75
2023/05/13 04:22:02;;;;;;;26.02;13.50;;;;;;;9.80;100.00;101871.72;4857343;29;20033;-75
2023/05/13 04:24:27;;;;;;;25.30;13.38;;;;;;;9.83;100.00;101868.03;4851520;29;20597;-76
2023/05/13 04:26:52;;;;;;;24.88;13.18;;;;;;;9.83;100.00;101875.22;4860947;29;20120;-75
2023/05/13 04:29:17;;;;;;;24.08;13.32;;;;;;;9.84;100.00;101871.56;4857920;29;20029;-76
2023/05/13 04:31:43;;;;;;;24.75;12.43;;;;;;;9.88;100.00;101870.44;4859219;29;20045;-76
2023/05/13 04:34:09;;;;;;;27.27;12.73;;;;;;;9.90;100.00;101868.56;4858521;29;20394;-76
2023/05/13 04:36:34;;;;;;;23.88;14.60;;;;;;;9.93;100.00;101884.50;4858380;29;20134;-75
2023/05/13 04:38:59;;;;;;;23.02;13.35;;;;;;;9.95;100.00;101879.91;4857870;29;20101;-75
2023/05/13 04:41:25;;;;;;;28.08;14.38;;;;;;;10.00;100.00;101876.97;4858902;29;20443;-75
2023/05/13 04:43:50;;;;;;;26.67;13.75;;;;;;;10.02;100.00;101888.50;4859693;29;20613;-76
2023/05/13 04:46:15;;;;;;;22.67;12.70;;;;;;;10.03;100.00;101879.47;4857002;29;20033;-75
2023/05/13 04:48:41;;;;;;;24.15;14.20;;;;;;;10.07;100.00;101892.69;4859593;29;20390;-75
2023/05/13 04:51:07;;;;;;;25.08;12.95;;;;;;;10.08;100.00;101894.41;4858749;29;20033;-75
2023/05/13 04:53:32;;;;;;;23.95;13.63;;;;;;;10.11;100.00;101891.53;4860397;29;20034;-75
2023/05/13 04:55:59;;;;;;;25.77;13.27;;;;;;;10.17;100.00;101884.13;4860001;29;20037;-75
2023/05/13 04:58:26;;;;;;;24.52;13.18;;;;;;;10.22;100.00;101884.72;4859688;29;20042;-75
2023/05/13 05:00:51;;;;;;;23.73;13.30;;;;;;;10.25;100.00;101889.91;4859413;29;20047;-76
2023/05/13 05:03:17;;;;;;;23.40;12.73;;;;;;;10.29;100.00;101897.75;4858430;29;20116;-75
2023/05/13 05:05:42;;;;;;;22.30;13.25;;;;;;;10.36;100.00;101886.69;4858264;29;20542;-76
2023/05/13 05:08:07;;;;;;;23.77;13.25;;;;;;;10.39;100.00;101892.75;4858584;29;20510;-76
2023/05/13 05:10:33;;;;;;;25.88;13.80;;;;;;;10.46;100.00;101898.66;4858140;29;20041;-75
2023/05/13 05:12:58;;;;;;;22.40;12.60;;;;;;;10.52;100.00;101890.25;4858612;29;20029;-76
2023/05/13 05:15:23;;;;;;;23.52;12.73;;;;;;;10.54;100.00;101896.41;4859107;29;20031;-76
2023/05/13 05:17:48;;;;;;;24.35;13.70;;;;;;;10.59;100.00;101901.53;4857786;29;20053;-76
2023/05/13 05:20:14;;;;;;;25.60;14.98;;;;;;;10.62;100.00;101904.88;4851602;29;20033;-76
2023/05/13 05:22:40;;;;;;;27.20;14.45;;;;;;;10.67;100.00;101910.00;4856857;29;20113;-76
2023/05/13 05:25:06;;;;;;;25.52;13.88;;;;;;;10.73;100.00;101903.41;4856682;29;20029;-76
2023/05/13 05:27:32;;;;;;;25.23;13.43;;;;;;;10.78;100.00;101910.25;4856472;29;20042;-76
2023/05/13 05:29:57;;;;;;;25.73;14.23;;;;;;;10.86;100.00;101908.97;4849243;29;20040;-76
2023/05/13 05:32:23;;;;;;;23.23;13.75;;;;;;;10.90;100.00;101908.69;4857336;29;20032;-76
2023/05/13 05:34:48;;;;;;;23.08;14.85;;;;;;;10.98;100.00;101903.75;4855897;29;20065;-76
2023/05/13 05:37:14;;;;;;;29.85;15.32;;;;;;;11.06;100.00;101911.34;4856486;29;20029;-76
2023/05/13 05:39:40;;;;;;;27.85;15.43;;;;;;;11.14;100.00;101911.78;4857003;29;20120;-76
2023/05/13 05:42:06;;;;;;;25.60;14.55;;;;;;;11.25;100.00;101916.53;4856363;29;20040;-76
2023/05/13 05:44:31;;;;;;;28.20;14.95;;;;;;;11.32;100.00;101922.44;4851373;29;20518;-76
2023/05/13 05:46:56;;;;;;;24.15;13.95;;;;;;;11.36;100.00;101922.16;4858353;29;20116;-76
2023/05/13 05:49:22;;;;;;;28.48;15.80;;;;;;;11.43;100.00;101922.63;4853701;29;20451;-75
2023/05/13 05:51:47;;;;;;;24.30;15.50;;;;;;;11.45;100.00;101926.13;4852435;29;20033;-76
2023/05/13 05:54:12;;;;;;;25.60;14.25;;;;;;;11.48;100.00;101925.94;4852085;29;20036;-76
2023/05/13 05:56:38;;;;;;;25.70;14.35;;;;;;;11.49;100.00;101930.38;4857813;29;20029;-75
2023/05/13 05:59:03;;;;;;;24.40;15.15;;;;;;;11.49;100.00;101933.06;4855043;29;20033;-74
2023/05/13 06:01:35;;;;;;;26.67;13.85;;;;;;;11.49;100.00;101927.66;4854124;29;20030;-74
2023/05/13 06:04:01;;;;;;;25.42;15.10;;;;;;;11.53;100.00;101933.72;4851848;29;20061;-74
2023/05/13 06:06:26;;;;;;;26.42;15.40;;;;;;;11.58;100.00;101928.06;4853596;29;20053;-74
2023/05/13 06:08:51;;;;;;;29.52;15.90;;;;;;;11.64;100.00;101930.38;4854675;29;20136;-74
2023/05/13 06:11:17;;;;;;;32.88;15.80;;;;;;;11.68;100.00;101929.22;4853807;29;20030;-74
2023/05/13 06:13:42;;;;;;;25.55;15.02;;;;;;;11.73;100.00;101929.84;4851803;29;20045;-73
2023/05/13 06:16:08;;;;;;;25.65;16.05;;;;;;;11.77;100.00;101928.69;4850301;29;20344;-74
2023/05/13 06:18:33;;;;;;;25.10;15.50;;;;;;;11.84;100.00;101939.94;4853301;29;20124;-74
2023/05/13 06:20:59;;;;;;;25.98;15.65;;;;;;;11.89;100.00;101943.25;4856270;29;20030;-75
2023/05/13 06:23:24;;;;;;;25.65;16.73;;;;;;;11.93;100.00;101941.22;4854712;29;20037;-74
2023/05/13 06:25:49;;;;;;;28.15;16.15;;;;;;;11.93;100.00;101944.78;4855353;29;20026;-73
2023/05/13 06:28:15;;;;;;;27.38;16.23;;;;;;;11.94;100.00;101937.59;4859963;29;20112;-73
2023/05/13 06:30:41;;;;;;;28.08;15.88;;;;;;;11.97;100.00;101937.41;4858216;29;20120;-75
2023/05/13 06:33:09;;;;;;;26.17;15.50;;;;;;;12.03;100.00;101945.09;4858300;29;20030;-77
2023/05/13 06:35:35;;;;;;;28.38;15.60;;;;;;;12.10;100.00;101942.91;4856662;29;20037;-74
2023/05/13 06:38:00;;;;;;;26.75;15.38;;;;;;;12.16;100.00;101943.38;4857193;29;20041;-75
2023/05/13 06:40:26;;;;;;;26.77;15.93;;;;;;;12.22;100.00;101942.97;4857309;29;20033;-76
2023/05/13 06:42:51;;;;;;;27.08;16.38;;;;;;;12.27;100.00;101937.31;4855983;29;20390;-77
2023/05/13 06:45:17;;;;;;;25.85;15.10;;;;;;;12.28;100.00;101944.41;4858467;29;20033;-75
2023/05/13 06:47:42;;;;;;;32.50;16.55;;;;;;;12.23;100.00;101950.09;4858185;29;20037;-77
2023/05/13 06:50:08;;;;;;;26.10;14.98;;;;;;;12.24;100.00;101954.53;4858358;29;20061;-74
2023/05/13 06:52:33;;;;;;;25.95;16.08;;;;;;;12.29;100.00;101964.19;4845295;29;20078;-72
2023/05/13 06:54:58;;;;;;;26.55;16.23;;;;;;;12.34;100.00;101959.34;4856687;29;20063;-72
2023/05/13 06:57:24;;;;;;;25.13;16.25;;;;;;;12.42;100.00;101951.66;4855302;29;20041;-76
2023/05/13 06:59:50;;;;;;;24.98;15.65;;;;;;;12.47;100.00;101954.91;4857585;29;20033;-76
2023/05/13 07:02:15;;;;;;;26.88;16.20;;;;;;;12.51;100.00;101951.06;4855639;29;20033;-75
2023/05/13 07:04:40;;;;;;;28.55;17.23;;;;;;;12.56;100.00;101946.25;4857811;29;20542;-75
2023/05/13 07:07:06;;;;;;;27.15;16.52;;;;;;;12.64;100.00;101951.13;4856760;29;20057;-76
2023/05/13 07:09:32;;;;;;;26.30;16.58;;;;;;;12.70;100.00;101960.66;4857975;29;20089;-76
2023/05/13 07:11:57;;;;;;;25.63;16.80;;;;;;;12.81;100.00;101949.16;4857798;29;20056;-76
2023/05/13 07:14:24;;;;;;;27.15;16.90;;;;;;;12.88;100.00;101945.97;4856192;29;20067;-75
2023/05/13 07:16:50;;;;;;;29.48;16.90;;;;;;;12.92;100.00;101952.91;4856819;29;20042;-76
2023/05/13 07:19:15;;;;;;;26.48;17.02;;;;;;;12.92;100.00;101949.34;4854270;29;20040;-77
2023/05/13 07:21:40;;;;;;;27.05;17.05;;;;;;;12.93;100.00;101945.69;4855738;29;20067;-74
2023/05/13 07:24:06;;;;;;;25.30;15.95;;;;;;;12.89;100.00;101947.69;4853250;29;20402;-74
2023/05/13 07:26:31;;;;;;;25.73;15.48;;;;;;;12.84;100.00;101949.84;4857246;29;20037;-74
2023/05/13 07:28:56;;;;;;;26.02;16.02;;;;;;;12.83;100.00;101953.50;4860210;29;20112;-76
2023/05/13 07:31:22;;;;;;;27.83;17.05;;;;;;;12.88;100.00;101948.66;4863581;29;20036;-76
2023/05/13 07:33:47;;;;;;;27.67;17.17;;;;;;;12.96;100.00;101939.19;4861879;29;20035;-75
2023/05/13 07:36:12;;;;;;;29.05;16.85;;;;;;;13.05;100.00;101933.22;4859706;29;20029;-74
2023/05/13 07:38:38;;;;;;;27.67;17.40;;;;;;;13.18;100.00;101944.06;4852511;29;20033;-74
2023/05/13 07:41:03;;;;;;;26.92;17.45;;;;;;;13.32;100.00;101937.72;4860178;29;20033;-76
2023/05/13 07:43:28;;;;;;;25.98;15.75;;;;;;;13.48;100.00;101945.69;4856065;29;20108;-76
2023/05/13 07:45:54;;;;;;;29.75;16.30;;;;;;;13.61;100.00;101936.63;4855846;29;20474;-74
2023/05/13 07:48:19;;;;;;;28.10;17.52;;;;;;;13.71;100.00;101944.09;4854086;29;20398;-75
2023/05/13 07:50:45;;;;;;;27.58;16.48;;;;;;;13.79;100.00;101949.81;4854161;29;20390;-75
2023/05/13 07:53:11;;;;;;;24.50;15.43;;;;;;;13.86;100.00;101953.84;4857098;29;20390;-75
2023/05/13 07:55:36;;;;;;;24.80;15.68;;;;;;;13.98;97.54;101950.28;4857371;29;20494;-72
2023/05/13 07:58:01;;;;;;;25.15;15.93;;;;;;;14.12;96.84;101945.75;4857585;29;20033;-72
2023/05/13 08:00:27;;;;;;;26.13;15.80;;;;;;;14.28;97.54;101953.63;4858349;29;20037;-73
2023/05/13 08:02:52;;;;;;;27.48;16.25;;;;;;;14.41;94.29;101949.06;4858412;29;20029;-73
2023/05/13 08:05:17;;;;;;;24.15;15.25;;;;;;;14.55;96.99;101958.88;4858143;29;20116;-73
2023/05/13 08:07:42;;;;;;;26.27;16.17;;;;;;;14.64;96.20;101950.16;4861814;29;20072;-72
2023/05/13 08:10:08;;;;;;;26.48;15.68;;;;;;;14.70;95.53;101953.34;4853807;29;20033;-74
2023/05/13 08:12:33;;;;;;;24.88;15.55;;;;;;;14.72;91.84;101951.44;4856713;29;20040;-73
2023/05/13 08:15:02;;;;;;;23.08;13.80;;;;;;;14.73;94.49;101951.31;4856035;29;20030;-72
2023/05/13 08:17:28;;;;;;;22.08;13.00;;;;;;;14.66;91.78;101947.31;4852159;29;20117;-73
2023/05/13 08:19:53;;;;;;;25.25;14.65;;;;;;;14.66;92.41;101948.19;4856377;29;20113;-73
2023/05/13 08:22:18;;;;;;;24.92;14.95;;;;;;;14.75;94.05;101951.19;4857734;29;20271;-75
2023/05/13 08:24:44;;;;;;;23.55;13.70;;;;;;;14.83;92.37;101949.66;4853975;29;20491;-74
2023/05/13 08:27:09;;;;;;;24.15;15.07;;;;;;;14.90;89.83;101958.16;4855336;29;21175;-73
2023/05/13 08:29:34;;;;;;;25.35;14.43;;;;;;;14.96;89.20;101948.72;4855242;29;20037;-73
2023/05/13 08:32:00;;;;;;;23.90;13.60;;;;;;;15.05;92.64;101949.88;4857764;29;20033;-74
2023/05/13 08:34:25;;;;;;;25.65;15.55;;;;;;;15.05;89.87;101953.44;4857741;29;20017;-74
2023/05/13 08:36:50;;;;;;;26.17;14.43;;;;;;;15.02;86.64;101946.44;4858032;29;20037;-73
2023/05/13 08:39:15;;;;;;;26.73;15.18;;;;;;;15.05;88.59;101948.03;4855844;29;21681;-73
2023/05/13 08:41:43;;;;;;;25.50;13.77;;;;;;;15.11;91.48;101953.00;4853250;29;20101;-74
2023/05/13 08:44:11;;;;;;;30.08;15.73;;;;;;;15.15;90.70;101949.09;4856212;29;20064;-73
2023/05/13 08:46:38;;;;;;;26.27;14.55;;;;;;;15.24;90.86;101962.91;4857000;29;20037;-73
2023/05/13 08:49:04;;;;;;;24.88;15.05;;;;;;;15.27;88.71;101952.72;4856082;29;20146;-75
2023/05/13 08:51:30;;;;;;;24.27;14.80;;;;;;;15.34;88.77;101958.53;4854339;29;20112;-75
2023/05/13 08:53:56;;;;;;;27.52;15.75;;;;;;;15.41;90.67;101954.38;4857784;29;20033;-74
2023/05/13 08:56:24;;;;;;;26.02;15.45;;;;;;;15.49;93.86;101948.34;4858058;29;20497;-75
2023/05/13 08:58:49;;;;;;;24.10;14.85;;;;;;;15.52;89.37;101954.41;4858979;29;20040;-76
2023/05/13 09:01:15;;;;;;;24.58;14.70;;;;;;;15.57;88.10;101955.91;4858550;29;20486;-75
2023/05/13 09:03:53;;;;;;;30.00;13.80;;;;;;;15.61;89.36;101949.25;4860146;29;20033;-73
2023/05/13 09:06:19;;;;;;;24.15;14.85;;;;;;;15.62;86.00;101951.00;4859357;29;20033;-71
2023/05/13 09:08:45;;;;;;;26.52;14.23;;;;;;;15.68;89.13;101945.09;4855661;29;20033;-71
2023/05/13 09:11:10;;;;;;;25.55;14.63;;;;;;;15.68;85.28;101950.50;4856746;29;20230;-72
2023/05/13 09:13:36;;;;;;;24.80;15.98;;;;;;;15.72;86.86;101952.00;4859454;29;20041;-70
2023/05/13 09:16:01;;;;;;;24.20;15.10;;;;;;;15.78;88.10;101942.53;4857665;29;20427;-74
2023/05/13 09:18:30;;;;;;;24.25;14.82;;;;;;;15.81;83.94;101948.63;4854595;29;20049;-74
2023/05/13 09:20:56;;;;;;;24.45;15.73;;;;;;;15.90;86.17;101944.31;4853492;29;20029;-74
2023/05/13 09:23:22;;;;;;;24.42;15.02;;;;;;;15.93;87.64;101949.50;4859699;29;20063;-73
2023/05/13 09:25:48;;;;;;;25.23;14.50;;;;;;;16.01;86.31;101941.63;4748376;29;20414;-76
2023/05/13 09:28:14;;;;;;;24.48;15.27;;;;;;;16.02;84.55;101951.50;4794831;29;20037;-74
2023/05/13 09:30:40;;;;;;;24.02;13.75;;;;;;;16.11;87.32;101940.91;4857474;29;20049;-75
2023/05/13 09:33:08;;;;;;;24.50;14.57;;;;;;;16.18;85.82;101936.69;4809475;29;20040;-74
2023/05/13 09:35:35;;;;;;;27.77;14.88;;;;;;;16.25;87.22;101937.94;4796674;29;20029;-74
2023/05/13 09:38:00;;;;;;;26.92;16.70;;;;;;;16.31;84.78;101937.47;4798174;29;20041;-77
2023/05/13 09:40:26;;;;;;;25.42;15.60;;;;;;;16.35;83.29;101936.22;4831956;29;20384;-75
2023/05/13 09:42:57;;;;;;;25.58;16.48;;;;;;;16.39;83.34;101940.41;4798339;29;20447;-75
2023/05/13 09:45:22;;;;;;;26.00;14.95;;;;;;;16.43;85.94;101927.47;4854733;29;20032;-72
2023/05/13 09:47:52;;;;;;;22.73;13.88;;;;;;;16.55;83.90;101931.03;4860979;29;20088;-73
2023/05/13 09:50:17;;;;;;;24.77;14.60;;;;;;;16.55;81.21;101933.75;4852514;29;20037;-72
2023/05/13 09:52:44;;;;;;;23.45;14.07;;;;;;;16.64;84.96;101932.13;4861810;29;20431;-72
2023/05/13 09:55:09;;;;;;;24.98;14.88;;;;;;;16.65;83.75;101934.72;4864819;29;20084;-72
2023/05/13 09:57:36;;;;;;;24.58;15.02;;;;;;;16.67;84.29;101921.88;4859157;29;20053;-72
2023/05/13 10:00:08;;;;;;;23.15;14.05;;;;;;;16.75;85.53;101924.81;4851683;29;20033;-73
2023/05/13 10:02:34;;;;;;;26.67;15.30;;;;;;;16.79;87.97;101917.28;4857031;29;20085;-71
2023/05/13 10:05:00;;;;;;;23.73;13.70;;;;;;;16.83;83.09;101921.47;4860328;29;20035;-73
2023/05/13 10:07:26;;;;;;;21.92;12.68;;;;;;;16.88;84.55;101918.41;4853429;29;20025;-71
2023/05/13 10:09:56;;;;;;;26.75;14.68;;;;;;;16.93;88.97;101911.59;4856308;29;20070;-72
2023/05/13 10:12:23;;;;;;;;;;;;;;;16.91;89.77;101912.72;4768708;29;20034;-73
2023/05/13 10:14:53;;;;;;;27.08;13.90;;;;;;;17.03;85.04;101906.28;4853147;29;19931;-72
2023/05/13 10:17:24;;;;;;;25.83;13.85;;;;;;;17.12;84.73;101910.06;4860391;29;20085;-72
2023/05/13 10:19:51;;;;;;;25.42;13.68;;;;;;;17.16;83.80;101916.97;4851583;29;20030;-72
2023/05/13 10:22:26;;;;;;;23.40;12.27;;;;;;;17.21;81.63;101905.72;4857264;29;20577;-72
2023/05/13 10:24:52;;;;;;;25.80;13.90;;;;;;;17.32;80.75;101908.38;4853557;29;20470;-73
2023/05/13 10:27:21;;;;;;;22.70;12.70;;;;;;;17.34;80.53;101909.09;4860898;29;20033;-71
2023/05/13 10:29:49;;;;;;;22.58;12.38;;;;;;;17.40;82.09;101900.41;4858904;29;20526;-72
2023/05/13 10:32:14;;;;;;;23.75;13.23;;;;;;;17.50;81.33;101907.78;4861370;29;20367;-72
2023/05/13 10:34:42;;;;;;;24.88;13.05;;;;;;;17.54;82.77;101910.13;4859340;29;20041;-71
2023/05/13 10:37:11;;;;;;;27.38;13.70;;;;;;;17.63;83.32;101903.03;4861704;29;20037;-72
2023/05/13 10:40:14;;;;;;;22.42;12.27;;;;;;;17.65;84.83;101903.75;4860134;29;20509;-71
2023/05/13 10:42:44;;;;;;;21.92;11.45;;;;;;;17.70;84.57;101909.66;4853868;29;20098;-75
2023/05/13 10:45:09;;;;;;;22.27;11.00;;;;;;;17.78;79.53;101901.66;4856702;29;20058;-73
2023/05/13 10:47:36;;;;;;;24.58;11.65;;;;;;;17.87;81.82;101901.88;4853919;29;20483;-72
2023/05/13 10:50:06;;;;;;;21.95;11.57;;;;;;;17.89;78.04;101899.88;4851912;29;20055;-72
2023/05/13 10:52:42;;;;;;;22.17;10.27;;;;;;;17.91;79.55;101897.94;4859492;29;20033;-72
2023/05/13 10:55:14;;;;;;;21.02;10.63;;;;;;;17.96;76.46;101898.38;4856446;29;20034;-73
2023/05/13 10:57:40;;;;;;;23.42;12.07;;;;;;;17.95;79.36;101897.50;4858170;29;20089;-72
2023/05/13 11:00:15;;;;;;;21.98;12.27;;;;;;;18.01;76.15;101900.66;4852570;29;20034;-72